Magnolia — WDB7135 — position and weather

sailwx.info

Track history (hours):
 
Tides and Currents Weather Stations Pressure Air Temp Water Temp Dewpoint Dewpoint Depression Visibility Wind Speed Wind Dir Waves Ship Positions

Magnolia

Owner: Magnolia Marine Transport Co, Vicksburg, MS. More information available from US FCC via Universal Licensing System and Coast Guard Vessel Documentation Center.

Last reported at 2016-Jul-02 09:32 UTC. Time now 2016-Jul-02 09:36 UTC.
Position N 32°23' W 090°53'.

Length 215 m.

MMSI: 366936960.

Date/timePositionNaut miles runAvg speedWind from/ knotsBaromVisibWave heightAir tempDewpointWater temp
2016-Jul-02 09:32N 32°23' W 090°53'0 0.0
2016-Jul-02 08:32N 32°23' W 090°53'0 0.0
2016-Jul-02 07:32N 32°23' W 090°53'0 0.0
2016-Jul-02 06:32N 32°23' W 090°53'0 0.0
2016-Jul-02 04:32N 32°23' W 090°53'0 0.0
2016-Jul-02 03:21N 32°23' W 090°53'0 0.0
2016-Jul-02 02:26N 32°23' W 090°53'1 0.8
2016-Jul-02 01:33N 32°22' W 090°53'2 1.9
2016-Jul-02 00:31N 32°20' W 090°54'1 0.5
2016-Jul-01 23:33N 32°20' W 090°54'7 7.3
2016-Jul-01 22:33N 32°25' W 091°00'9 7.9
2016-Jul-01 21:24N 32°33' W 091°06'  
Track history (hours):
 
Tides and Currents Weather Stations Pressure Air Temp Water Temp Dewpoint Dewpoint Depression Visibility Wind Speed Wind Dir Waves Ship Positions

Magnolia

Owner: Magnolia Marine Transport Co, Vicksburg, MS. More information available from US FCC via Universal Licensing System and Coast Guard Vessel Documentation Center.

Last reported at 2016-Jul-02 09:32 UTC. Time now 2016-Jul-02 09:36 UTC.
Position N 32°23' W 090°53'.

Length 215 m.

MMSI: 366936960.

Date/timePositionNaut miles runAvg speedWind from/ knotsBaromVisibWave heightAir tempDewpointWater temp
2016-Jul-02 09:32N 32°23' W 090°53'0 0.0
2016-Jul-02 08:32N 32°23' W 090°53'0 0.0
2016-Jul-02 07:32N 32°23' W 090°53'0 0.0
2016-Jul-02 06:32N 32°23' W 090°53'0 0.0
2016-Jul-02 04:32N 32°23' W 090°53'0 0.0
2016-Jul-02 03:21N 32°23' W 090°53'0 0.0
2016-Jul-02 02:26N 32°23' W 090°53'1 0.8
2016-Jul-02 01:33N 32°22' W 090°53'2 1.9
2016-Jul-02 00:31N 32°20' W 090°54'1 0.5
2016-Jul-01 23:33N 32°20' W 090°54'7 7.3
2016-Jul-01 22:33N 32°25' W 091°00'9 7.9
2016-Jul-01 21:24N 32°33' W 091°06'  

Dump ship's entire track history